CheckWX is a tool to help pilots better visualize weather data.  It is not intended as a substitute for an official pre-flight weather briefing.

06:25:29 UTC

KBDL TAF
Bradley International Airport
Windsor Locks, Connecticut, USA
KBDL 140539Z 1406/1512 00000KT P6SM BKN090 FM141400 16003KT P6SM BKN120 FM141500 17004KT P6SM OVC030 FM142100 18005KT P6SM BKN020 FM150100 20004KT P6SM BKN120 FM150700 20003KT P6SM SCT250

Nov-14@
06:00 UTC

Nov-14 @ 06:00 UTC

Nov-14@
14:00 UTC

Nov-14 @ 14:00 UTC

KBDL 140539Z 1406/1512 00000KT P6SM BKN090
Cloud Levels
  • Broken at 9,000' AGL

Nov-14@
14:00 UTC

Nov-14 @ 14:00 UTC

Nov-14@
15:00 UTC

Nov-14 @ 15:00 UTC

FM141400 16003KT P6SM BKN120

From

From Standard forecast or significant change

Wind
  • 160° at 3 KTS
Cloud Levels
  • Broken at 12,000' AGL

Nov-14@
15:00 UTC

Nov-14 @ 15:00 UTC

Nov-14@
21:00 UTC

Nov-14 @ 21:00 UTC

FM141500 17004KT P6SM OVC030

From

From Standard forecast or significant change

Wind
  • 170° at 4 KTS
Cloud Levels
  • Overcast at 3,000' AGL

Nov-14@
21:00 UTC

Nov-14 @ 21:00 UTC

Nov-15@
01:00 UTC

Nov-15 @ 01:00 UTC

FM142100 18005KT P6SM BKN020

From

From Standard forecast or significant change

Wind
  • 180° at 5 KTS
Cloud Levels
  • Broken at 2,000' AGL

Nov-15@
01:00 UTC

Nov-15 @ 01:00 UTC

Nov-15@
07:00 UTC

Nov-15 @ 07:00 UTC

FM150100 20004KT P6SM BKN120

From

From Standard forecast or significant change

Wind
  • 200° at 4 KTS
Cloud Levels
  • Broken at 12,000' AGL

Nov-15@
07:00 UTC

Nov-15 @ 07:00 UTC

Nov-15@
12:00 UTC

Nov-15 @ 12:00 UTC

FM150700 20003KT P6SM SCT250

From

From Standard forecast or significant change

Wind
  • 200° at 3 KTS
Cloud Levels
  • Scattered at 25,000' AGL